Time;durP1;ratioP1;P1;durP2;ratioP2;P2;SDS_P1;SDS_P2;PMS_P1;PMS_P2;Temp;Humidity;BMP_temperature;BMP_pressure;BME280_temperature;BME280_humidity;BME280_pressure;Samples;Min_cycle;Max_cycle;Signal;HPM_P1;HPM_P2
2023/04/26 00:01:17;;;;;;;12.60;5.90;;;3.60;83.80;;;;;;5055236;28;20483;-72
2023/04/26 00:03:42;;;;;;;12.23;5.80;;;3.60;83.80;;;;;;5077059;28;20709;-72
2023/04/26 00:06:08;;;;;;;14.43;6.00;;;3.60;84.20;;;;;;5079300;28;20398;-72
2023/04/26 00:08:37;;;;;;;16.52;6.65;;;3.50;84.50;;;;;;5082996;28;20387;-72
2023/04/26 00:11:02;;;;;;;9.50;5.53;;;3.60;84.70;;;;;;5058732;28;20459;-73
2023/04/26 00:13:28;;;;;;;14.85;6.43;;;3.50;85.20;;;;;;5072733;28;20465;-72
2023/04/26 00:15:54;;;;;;;15.30;5.90;;;3.40;86.40;;;;;;5072137;28;20396;-72
2023/04/26 00:18:19;;;;;;;14.90;6.40;;;3.30;87.40;;;;;;5082705;28;20437;-72
2023/04/26 00:20:45;;;;;;;16.13;6.70;;;3.30;88.40;;;;;;5093163;28;20376;-73
2023/04/26 00:23:10;;;;;;;14.87;6.70;;;3.30;89.60;;;;;;5091990;28;20399;-73
2023/04/26 00:25:37;;;;;;;12.00;6.30;;;3.30;90.80;;;;;;5087539;28;20396;-73
2023/04/26 00:28:03;;;;;;;19.13;6.90;;;3.20;90.90;;;;;;5085269;28;20388;-72
2023/04/26 00:30:29;;;;;;;18.30;6.78;;;3.20;91.20;;;;;;5079841;28;20383;-73
2023/04/26 00:32:54;;;;;;;14.30;6.37;;;3.10;91.70;;;;;;5070819;28;20467;-72
2023/04/26 00:35:20;;;;;;;14.03;6.00;;;3.10;92.40;;;;;;5071584;28;20380;-73
2023/04/26 00:37:46;;;;;;;20.45;7.40;;;3.10;93.30;;;;;;5071506;28;20391;-72
2023/04/26 00:40:12;;;;;;;15.90;5.80;;;3.30;93.20;;;;;;5071447;28;20392;-72
2023/04/26 00:42:39;;;;;;;15.35;6.40;;;3.20;92.20;;;;;;5070574;28;20404;-72
2023/04/26 00:45:06;;;;;;;16.50;7.20;;;3.20;92.60;;;;;;5071307;28;20421;-72
2023/04/26 00:47:32;;;;;;;14.60;6.50;;;3.40;93.50;;;;;;5071284;28;20380;-72
2023/04/26 00:49:58;;;;;;;16.48;7.35;;;3.40;91.70;;;;;;5053370;28;20395;-72
2023/04/26 00:52:25;;;;;;;14.57;6.60;;;3.40;92.20;;;;;;5070608;28;20437;-73
2023/04/26 00:54:52;;;;;;;13.50;6.47;;;3.30;92.20;;;;;;5071017;28;20881;-73
2023/04/26 00:57:17;;;;;;;24.40;7.13;;;3.20;93.10;;;;;;5071046;28;20388;-72
2023/04/26 00:59:43;;;;;;;14.90;6.37;;;3.30;92.70;;;;;;5070968;28;20805;-72
2023/04/26 01:02:09;;;;;;;11.50;6.30;;;3.30;91.80;;;;;;5070402;28;20395;-72
2023/04/26 01:04:36;;;;;;;13.97;5.93;;;3.20;91.70;;;;;;5070661;28;20383;-72
2023/04/26 01:07:02;;;;;;;17.45;7.53;;;3.10;92.50;;;;;;5070790;28;20437;-72
2023/04/26 01:09:30;;;;;;;13.83;7.00;;;3.00;93.20;;;;;;5070839;28;20462;-72
2023/04/26 01:11:57;;;;;;;15.80;7.13;;;3.00;93.90;;;;;;5070317;28;20384;-73
2023/04/26 01:14:23;;;;;;;15.15;7.07;;;3.00;94.80;;;;;;5052680;28;20484;-72
2023/04/26 01:16:51;;;;;;;11.02;6.72;;;2.90;95.40;;;;;;5070843;28;20868;-72
2023/04/26 01:19:17;;;;;;;14.75;6.82;;;3.00;96.30;;;;;;5070683;28;20888;-72
2023/04/26 01:21:43;;;;;;;13.48;6.75;;;3.10;95.10;;;;;;5069956;28;20448;-71
2023/04/26 01:24:12;;;;;;;20.00;7.90;;;3.30;93.90;;;;;;5052547;28;20877;-72
2023/04/26 01:26:44;;;;;;;17.05;8.57;;;3.10;92.10;;;;;;5070465;28;20387;-72
2023/04/26 01:29:17;;;;;;;15.88;8.05;;;3.00;93.00;;;;;;5070960;28;20745;-73
2023/04/26 01:31:43;;;;;;;18.15;7.53;;;2.90;94.60;;;;;;5070487;28;20376;-73
2023/04/26 01:34:09;;;;;;;15.85;7.85;;;2.90;96.60;;;;;;5071300;28;20756;-74
2023/04/26 01:36:34;;;;;;;17.10;7.90;;;2.90;95.90;;;;;;5071963;28;20380;-74
2023/04/26 01:39:00;;;;;;;18.33;7.50;;;2.80;96.10;;;;;;5075918;28;20416;-74
2023/04/26 01:41:25;;;;;;;20.13;8.48;;;2.70;97.10;;;;;;5079352;28;20408;-73
2023/04/26 01:43:51;;;;;;;19.23;8.00;;;2.70;98.10;;;;;;5078735;28;20421;-74
2023/04/26 01:46:17;;;;;;;14.37;7.57;;;2.70;99.10;;;;;;5071803;28;20702;-73
2023/04/26 01:48:42;;;;;;;24.50;8.07;;;2.70;99.80;;;;;;5052701;28;20383;-73
2023/04/26 01:51:08;;;;;;;23.15;8.00;;;2.70;99.90;;;;;;5070041;28;20434;-73
2023/04/26 01:53:33;;;;;;;21.85;8.95;;;2.70;99.80;;;;;;5070748;28;20388;-72
2023/04/26 01:56:02;;;;;;;15.35;7.80;;;2.60;99.40;;;;;;5070571;28;20892;-73
2023/04/26 01:58:28;;;;;;;22.05;9.07;;;2.70;99.80;;;;;;5070413;28;20380;-73
2023/04/26 02:00:56;;;;;;;17.27;7.45;;;2.60;98.40;;;;;;5069797;28;20384;-72
2023/04/26 02:03:21;;;;;;;19.27;8.70;;;2.70;99.00;;;;;;5070429;28;20466;-74
2023/04/26 02:05:47;;;;;;;17.17;8.98;;;2.80;97.80;;;;;;5071178;28;20478;-74
2023/04/26 02:08:12;;;;;;;21.63;9.20;;;2.70;98.10;;;;;;5076648;28;20387;-74
2023/04/26 02:10:38;;;;;;;16.83;9.17;;;2.70;97.60;;;;;;5077058;28;20387;-73
2023/04/26 02:13:06;;;;;;;16.30;7.90;;;2.60;98.00;;;;;;5076749;28;20391;-74
2023/04/26 02:15:32;;;;;;;18.43;8.90;;;2.70;99.30;;;;;;5077597;28;20392;-72
2023/04/26 02:17:58;;;;;;;19.33;8.50;;;2.70;98.30;;;;;;5072679;28;20764;-73
2023/04/26 02:20:23;;;;;;;14.13;7.50;;;2.70;99.80;;;;;;5074555;28;20371;-72
2023/04/26 02:22:49;;;;;;;16.73;7.95;;;2.60;99.10;;;;;;5059870;28;20399;-72
2023/04/26 02:25:14;;;;;;;19.88;8.38;;;2.50;99.00;;;;;;5077935;28;20380;-72
2023/04/26 02:27:40;;;;;;;20.17;8.77;;;2.40;99.40;;;;;;5074339;28;20439;-74
2023/04/26 02:30:07;;;;;;;21.73;8.27;;;2.40;99.90;;;;;;5075825;28;20375;-73
2023/04/26 02:32:32;;;;;;;15.88;8.57;;;2.40;99.90;;;;;;5077042;28;20466;-73
2023/04/26 02:34:58;;;;;;;18.50;9.50;;;2.40;99.90;;;;;;5060264;28;20430;-72
2023/04/26 02:37:23;;;;;;;16.80;8.77;;;2.30;99.90;;;;;;5077368;28;20417;-74
2023/04/26 02:39:50;;;;;;;17.75;8.82;;;2.30;99.90;;;;;;5077341;28;20387;-72
2023/04/26 02:42:16;;;;;;;21.67;9.43;;;2.30;99.90;;;;;;5076758;28;20760;-72
2023/04/26 02:44:42;;;;;;;18.13;9.67;;;2.30;99.90;;;;;;5076984;28;20379;-74
2023/04/26 02:47:08;;;;;;;22.45;9.20;;;2.30;99.90;;;;;;5076803;28;20395;-73
2023/04/26 02:49:33;;;;;;;28.23;9.23;;;2.30;99.90;;;;;;5076973;28;20384;-74
2023/04/26 02:51:59;;;;;;;17.30;8.63;;;2.30;99.90;;;;;;5078261;28;20433;-74
2023/04/26 02:54:25;;;;;;;17.73;8.77;;;2.30;99.90;;;;;;5080637;28;20448;-74
2023/04/26 02:56:50;;;;;;;26.58;10.38;;;2.20;99.90;;;;;;5074856;28;20391;-73
2023/04/26 02:59:16;;;;;;;22.67;10.80;;;2.20;99.90;;;;;;5073521;28;20380;-73
2023/04/26 03:01:42;;;;;;;20.90;9.60;;;2.30;99.90;;;;;;5072787;28;20413;-73
2023/04/26 03:04:07;;;;;;;19.33;9.90;;;2.30;99.90;;;;;;5073125;28;20386;-73
2023/04/26 03:06:34;;;;;;;21.27;10.45;;;2.20;99.90;;;;;;5073368;28;20470;-73
2023/04/26 03:08:59;;;;;;;21.60;10.15;;;2.10;99.90;;;;;;5073253;28;20433;-73
2023/04/26 03:11:25;;;;;;;22.70;9.80;;;2.20;99.90;;;;;;5072611;28;20387;-73
2023/04/26 03:13:51;;;;;;;21.60;9.70;;;2.10;99.90;;;;;;5073464;28;20525;-74
2023/04/26 03:16:20;;;;;;;20.60;9.77;;;2.10;99.90;;;;;;5072930;28;20391;-72
2023/04/26 03:18:45;;;;;;;22.40;10.25;;;2.10;99.90;;;;;;5073004;28;20380;-73
2023/04/26 03:21:11;;;;;;;25.73;10.03;;;2.20;99.90;;;;;;5072062;28;20410;-74
2023/04/26 03:23:37;;;;;;;22.85;9.90;;;2.40;99.90;;;;;;5072891;28;20390;-73
2023/04/26 03:26:03;;;;;;;20.70;10.17;;;2.30;99.90;;;;;;5072950;28;20925;-72
2023/04/26 03:28:28;;;;;;;22.57;10.63;;;2.20;99.90;;;;;;5073089;28;20390;-72
2023/04/26 03:30:54;;;;;;;26.38;11.13;;;2.20;99.90;;;;;;5072479;28;20379;-72
2023/04/26 03:33:19;;;;;;;23.35;11.25;;;2.20;99.90;;;;;;5072838;28;20386;-74
2023/04/26 03:35:45;;;;;;;23.30;11.30;;;2.20;99.90;;;;;;5055236;28;20475;-74
2023/04/26 03:38:11;;;;;;;20.70;10.73;;;2.20;99.90;;;;;;5073047;28;20384;-74
2023/04/26 03:40:36;;;;;;;23.97;11.27;;;2.10;99.90;;;;;;5073201;28;20387;-72
2023/04/26 03:43:02;;;;;;;25.63;11.73;;;2.00;99.90;;;;;;5072129;28;20407;-73
2023/04/26 03:45:27;;;;;;;22.30;11.40;;;1.90;99.90;;;;;;5072910;28;20737;-73
2023/04/26 03:47:53;;;;;;;25.15;11.05;;;1.90;99.90;;;;;;5073111;28;20710;-73
2023/04/26 03:50:18;;;;;;;28.60;12.27;;;1.90;99.90;;;;;;5076550;28;20532;-72
2023/04/26 03:52:44;;;;;;;29.52;12.50;;;1.90;99.90;;;;;;5084611;28;20383;-73
2023/04/26 03:55:10;;;;;;;25.37;12.30;;;1.90;99.90;;;;;;5080567;28;20471;-72
2023/04/26 03:57:36;;;;;;;24.55;12.70;;;1.90;99.90;;;;;;5075102;28;20386;-72
2023/04/26 04:00:09;;;;;;;36.20;13.98;;;1.90;99.90;;;;;;5072402;28;20410;-73
2023/04/26 04:02:36;;;;;;;25.60;12.35;;;1.80;99.90;;;;;;5071813;28;20450;-73
2023/04/26 04:05:01;;;;;;;30.67;13.60;;;1.80;99.90;;;;;;5072459;28;20419;-73
2023/04/26 04:07:27;;;;;;;30.10;12.73;;;1.80;99.90;;;;;;5072178;28;20433;-74
2023/04/26 04:09:52;;;;;;;23.37;12.70;;;1.90;99.90;;;;;;5072423;28;20732;-72
2023/04/26 04:12:18;;;;;;;24.70;12.60;;;1.90;99.90;;;;;;5071355;28;20367;-72
2023/04/26 04:14:43;;;;;;;28.37;13.43;;;1.90;99.90;;;;;;5072197;28;20387;-72
2023/04/26 04:17:09;;;;;;;23.27;12.80;;;2.10;99.90;;;;;;5071899;28;20376;-72
2023/04/26 04:19:35;;;;;;;30.13;12.02;;;2.30;99.90;;;;;;5072354;28;20383;-73
2023/04/26 04:22:01;;;;;;;28.00;12.23;;;2.40;99.90;;;;;;5071738;28;20652;-74
2023/04/26 04:24:26;;;;;;;31.17;13.00;;;2.30;99.90;;;;;;5054118;28;20437;-73
2023/04/26 04:26:53;;;;;;;28.60;12.60;;;2.20;99.90;;;;;;5072040;28;20376;-73
2023/04/26 04:29:18;;;;;;;24.83;12.75;;;2.20;99.90;;;;;;5072298;28;20414;-74
2023/04/26 04:31:44;;;;;;;29.30;12.97;;;2.30;99.90;;;;;;5071552;28;20460;-74
2023/04/26 04:34:10;;;;;;;29.30;13.70;;;2.20;99.90;;;;;;5072472;28;20395;-73
2023/04/26 04:36:37;;;;;;;32.45;13.50;;;2.10;99.90;;;;;;5072588;28;20380;-72
2023/04/26 04:39:04;;;;;;;20.40;12.10;;;2.10;99.90;;;;;;5072308;28;20426;-75
2023/04/26 04:41:31;;;;;;;24.98;12.15;;;2.10;99.90;;;;;;5071025;28;20403;-73
2023/04/26 04:43:57;;;;;;;34.43;13.70;;;2.10;99.90;;;;;;5072224;28;20380;-72
2023/04/26 04:46:24;;;;;;;27.77;13.80;;;2.10;99.90;;;;;;5072574;28;20379;-73
2023/04/26 04:48:49;;;;;;;31.48;13.23;;;2.20;99.90;;;;;;5072223;28;20510;-73
2023/04/26 04:51:15;;;;;;;35.13;14.57;;;2.30;99.90;;;;;;5071303;28;20454;-73
2023/04/26 04:53:40;;;;;;;23.60;11.25;;;2.30;99.90;;;;;;5072143;28;20384;-73
2023/04/26 04:56:06;;;;;;;27.88;12.25;;;2.40;99.90;;;;;;5074285;28;20388;-73
2023/04/26 04:58:32;;;;;;;24.15;13.75;;;2.40;99.90;;;;;;5077760;28;20387;-74
2023/04/26 05:00:59;;;;;;;25.65;14.02;;;2.50;99.90;;;;;;5079974;28;20415;-74
2023/04/26 05:03:25;;;;;;;32.33;16.63;;;2.60;99.90;;;;;;5080707;28;20380;-74
2023/04/26 05:05:51;;;;;;;37.53;15.90;;;2.60;99.90;;;;;;5085031;28;20434;-72
2023/04/26 05:08:16;;;;;;;32.20;14.57;;;2.70;99.90;;;;;;5087758;28;20383;-73
2023/04/26 05:10:42;;;;;;;28.35;12.55;;;2.80;99.90;;;;;;5088807;28;20383;-72
2023/04/26 05:13:07;;;;;;;23.45;11.23;;;3.00;99.90;;;;;;5089737;28;20526;-73
2023/04/26 05:15:33;;;;;;;24.77;12.70;;;3.10;99.90;;;;;;5091432;28;20447;-72
2023/04/26 05:17:58;;;;;;;27.60;12.73;;;3.10;99.90;;;;;;5091059;28;20391;-72
2023/04/26 05:20:24;;;;;;;26.60;12.10;;;3.10;99.90;;;;;;5091396;28;20407;-72
2023/04/26 05:22:50;;;;;;;24.88;13.00;;;3.20;99.90;;;;;;5088190;28;20399;-72
2023/04/26 05:25:16;;;;;;;25.55;13.77;;;3.30;99.90;;;;;;5090804;28;20410;-73
2023/04/26 05:27:41;;;;;;;30.13;12.83;;;3.40;99.90;;;;;;5086444;28;20394;-74
2023/04/26 05:30:07;;;;;;;28.10;12.63;;;3.40;99.00;;;;;;5076056;28;20387;-74
2023/04/26 05:32:33;;;;;;;29.20;15.07;;;3.50;98.70;;;;;;5072897;28;20406;-73
2023/04/26 05:35:00;;;;;;;129.37;73.77;;;3.60;97.30;;;;;;5074446;28;20380;-73
2023/04/26 05:37:25;;;;;;;147.18;81.20;;;4.10;99.90;;;;;;5073813;28;20498;-74
2023/04/26 05:39:51;;;;;;;147.10;82.82;;;4.20;98.40;;;;;;5071929;28;20418;-72
2023/04/26 05:42:16;;;;;;;62.13;30.58;;;4.40;99.90;;;;;;5052603;28;20400;-75
2023/04/26 05:44:42;;;;;;;56.55;31.83;;;4.60;97.50;;;;;;5071301;28;20501;-74
2023/04/26 05:47:08;;;;;;;29.88;15.98;;;4.70;91.00;;;;;;5070996;28;20783;-72
2023/04/26 05:49:34;;;;;;;22.13;12.43;;;5.00;92.40;;;;;;5071580;28;20380;-72
2023/04/26 05:51:59;;;;;;;24.05;12.77;;;5.00;84.20;;;;;;5070491;28;20757;-72
2023/04/26 05:54:25;;;;;;;28.90;12.98;;;5.00;82.90;;;;;;5074925;28;20437;-72
2023/04/26 05:56:51;;;;;;;23.10;12.52;;;5.00;81.00;;;;;;5058190;28;20722;-73
2023/04/26 05:59:17;;;;;;;21.10;12.20;;;5.00;79.30;;;;;;5075375;28;20441;-73
2023/04/26 06:01:42;;;;;;;26.30;12.60;;;5.10;77.90;;;;;;5074375;28;20406;-72
2023/04/26 06:04:08;;;;;;;25.45;12.55;;;5.30;79.10;;;;;;5074996;28;20895;-72
2023/04/26 06:06:33;;;;;;;100.55;19.05;;;5.50;77.50;;;;;;5075217;28;20415;-73
2023/04/26 06:08:59;;;;;;;34.50;13.48;;;5.60;74.90;;;;;;5075067;28;20383;-73
2023/04/26 06:11:25;;;;;;;27.77;13.10;;;5.70;72.70;;;;;;5074507;28;20386;-72
2023/04/26 06:13:51;;;;;;;29.98;14.30;;;5.80;70.90;;;;;;5075019;28;20399;-75
2023/04/26 06:16:16;;;;;;;36.80;15.80;;;5.80;69.20;;;;;;5075610;28;20387;-72
2023/04/26 06:18:42;;;;;;;27.45;13.35;;;6.10;70.70;;;;;;5075453;28;20459;-73
2023/04/26 06:21:07;;;;;;;28.95;13.77;;;6.30;66.60;;;;;;5056813;28;20402;-74
2023/04/26 06:23:33;;;;;;;27.75;13.20;;;6.50;63.00;;;;;;5075795;28;20893;-74
2023/04/26 06:25:58;;;;;;;26.73;12.40;;;6.60;59.60;;;;;;5075355;28;20433;-72
2023/04/26 06:28:24;;;;;;;29.37;12.90;;;6.90;58.30;;;;;;5076351;28;20403;-72
2023/04/26 06:30:50;;;;;;;29.17;14.37;;;7.30;53.80;;;;;;5074840;28;20461;-75
2023/04/26 06:33:16;;;;;;;26.23;12.80;;;7.20;51.50;;;;;;5075012;28;20384;-72
2023/04/26 06:35:41;;;;;;;32.00;14.07;;;7.20;52.80;;;;;;5075323;28;20380;-72
2023/04/26 06:38:07;;;;;;;30.33;13.70;;;7.20;53.40;;;;;;5074697;28;20371;-72
2023/04/26 06:40:36;;;;;;;23.52;12.73;;;7.50;50.40;;;;;;5056258;28;20887;-73
2023/04/26 06:43:02;;;;;;;30.88;14.23;;;7.60;51.80;;;;;;5073400;28;20403;-73
2023/04/26 06:45:27;;;;;;;27.33;13.15;;;7.70;48.70;;;;;;5076984;28;20402;-74
2023/04/26 06:47:53;;;;;;;32.47;12.40;;;8.00;48.00;;;;;;5086899;28;20383;-74
2023/04/26 06:50:19;;;;;;;25.77;13.93;;;8.20;43.40;;;;;;5083477;28;20390;-74
2023/04/26 06:52:44;;;;;;;29.25;14.20;;;8.60;36.90;;;;;;5076228;28;20390;-74
2023/04/26 06:55:10;;;;;;;28.95;12.98;;;8.70;33.70;;;;;;5074089;28;20391;-73
2023/04/26 06:57:36;;;;;;;34.90;12.48;;;8.70;32.60;;;;;;5074274;28;20382;-74
2023/04/26 07:00:03;;;;;;;23.27;12.35;;;8.70;33.10;;;;;;5073886;28;20396;-72
2023/04/26 07:02:29;;;;;;;27.35;11.55;;;8.70;33.70;;;;;;5072924;28;20876;-71
2023/04/26 07:04:54;;;;;;;23.55;10.80;;;9.10;31.00;;;;;;5073558;28;20380;-73
2023/04/26 07:07:20;;;;;;;22.85;10.95;;;9.30;29.50;;;;;;5073861;28;20395;-72
2023/04/26 07:09:46;;;;;;;32.67;12.25;;;9.30;30.00;;;;;;5073816;28;20409;-72
2023/04/26 07:12:12;;;;;;;26.80;12.27;;;9.20;29.70;;;;;;5072905;28;20407;-72
2023/04/26 07:14:39;;;;;;;26.98;12.40;;;9.00;31.30;;;;;;5073963;28;20874;-72
2023/04/26 07:17:05;;;;;;;23.05;11.50;;;8.80;33.40;;;;;;5073797;28;20845;-74
2023/04/26 07:19:31;;;;;;;31.27;12.80;;;8.80;33.40;;;;;;5055683;28;20400;-72
2023/04/26 07:21:57;;;;;;;25.33;11.93;;;8.90;33.40;;;;;;5072607;28;20407;-74
2023/04/26 07:24:22;;;;;;;27.75;11.80;;;9.00;33.30;;;;;;5073134;28;20403;-74
2023/04/26 07:26:48;;;;;;;24.40;11.05;;;9.20;32.10;;;;;;5073222;28;20501;-73
2023/04/26 07:29:13;;;;;;;29.80;12.43;;;9.40;31.50;;;;;;5072912;28;20418;-73
2023/04/26 07:31:39;;;;;;;31.45;11.50;;;9.80;31.20;;;;;;5072633;28;20876;-72
2023/04/26 07:34:05;;;;;;;23.85;10.93;;;9.90;28.00;;;;;;5090336;28;20406;-72
2023/04/26 07:36:31;;;;;;;21.83;9.95;;;10.00;26.80;;;;;;5090493;28;20384;-71
2023/04/26 07:38:57;;;;;;;17.13;9.50;;;10.00;25.60;;;;;;5072563;28;20386;-74
2023/04/26 07:41:22;;;;;;;15.80;5.40;;;10.00;26.90;;;;;;5092375;28;20414;-73
2023/04/26 07:43:48;;;;;;;15.40;4.40;;;10.50;20.90;;;;;;5094751;28;20376;-72
2023/04/26 07:46:13;;;;;;;11.70;4.50;;;10.50;20.00;;;;;;5092577;28;20379;-73
2023/04/26 07:48:39;;;;;;;13.60;4.13;;;10.70;18.60;;;;;;5094002;28;20383;-71
2023/04/26 07:51:10;;;;;;;13.10;3.60;;;10.60;19.00;;;;;;5092958;28;20402;-73
2023/04/26 07:53:35;;;;;;;17.27;6.40;;;10.60;20.00;;;;;;5093145;28;20402;-73
2023/04/26 07:56:04;;;;;;;21.53;5.90;;;10.60;20.40;;;;;;5086670;28;20392;-72
2023/04/26 07:58:31;;;;;;;15.60;6.40;;;10.70;20.50;;;;;;5085411;28;20384;-74
2023/04/26 08:00:57;;;;;;;16.13;5.43;;;11.20;19.10;;;;;;5079860;28;20392;-71
2023/04/26 08:03:23;;;;;;;16.23;5.78;;;11.20;18.90;;;;;;5072547;28;20491;-72
2023/04/26 08:05:49;;;;;;;18.03;5.67;;;11.30;18.50;;;;;;5073292;28;20403;-72
2023/04/26 08:08:14;;;;;;;14.97;4.57;;;11.20;18.40;;;;;;5072669;28;20388;-73
2023/04/26 08:10:41;;;;;;;12.53;4.30;;;11.00;18.50;;;;;;5071868;28;20400;-73
2023/04/26 08:13:06;;;;;;;12.27;4.13;;;11.00;18.30;;;;;;5071959;28;20406;-73
2023/04/26 08:15:32;;;;;;;8.85;4.10;;;11.00;17.40;;;;;;5053164;28;20408;-73
2023/04/26 08:17:58;;;;;;;11.35;3.65;;;11.20;17.10;;;;;;5072468;28;20865;-72
2023/04/26 08:20:23;;;;;;;10.23;3.70;;;11.20;17.10;;;;;;5054094;28;20407;-75
2023/04/26 08:22:53;;;;;;;14.43;3.50;;;11.40;16.70;;;;;;5052845;28;20467;-74
2023/04/26 08:25:19;;;;;;;8.25;3.60;;;11.40;16.00;;;;;;5057537;28;20872;-74
2023/04/26 08:27:45;;;;;;;14.17;3.70;;;11.30;16.70;;;;;;5068929;28;20384;-74
2023/04/26 08:30:11;;;;;;;7.80;3.77;;;11.40;15.70;;;;;;5074510;28;20439;-77
2023/04/26 08:32:37;;;;;;;11.00;4.30;;;11.40;15.50;;;;;;5080010;28;20479;-77
2023/04/26 08:35:02;;;;;;;14.25;3.60;;;11.60;15.20;;;;;;5085013;28;20406;-75
2023/04/26 08:37:28;;;;;;;12.98;5.05;;;12.20;14.30;;;;;;5093540;28;20403;-76
2023/04/26 08:39:54;;;;;;;15.23;5.90;;;12.10;15.50;;;;;;5075982;28;20430;-71
2023/04/26 08:42:22;;;;;;;15.68;5.68;;;12.00;16.00;;;;;;5062600;28;20415;-72
2023/04/26 08:44:49;;;;;;;13.60;6.15;;;11.80;16.50;;;;;;5054037;28;20388;-74
2023/04/26 08:47:23;;;;;;;16.48;7.55;;;11.90;16.70;;;;;;5072653;28;20383;-73
2023/04/26 08:49:58;;;;;;;18.15;7.43;;;12.00;17.00;;;;;;5071473;28;20380;-74
2023/04/26 08:52:26;;;;;;;15.50;6.38;;;11.90;17.60;;;;;;5070291;28;20936;-75
2023/04/26 08:54:53;;;;;;;20.50;7.60;;;12.10;16.80;;;;;;5053098;28;20897;-74
2023/04/26 08:57:20;;;;;;;10.98;5.57;;;12.50;16.80;;;;;;5071302;28;20407;-74
2023/04/26 08:59:46;;;;;;;11.55;4.70;;;12.40;16.60;;;;;;5071480;28;20383;-72
2023/04/26 09:02:17;;;;;;;15.02;3.92;;;12.50;13.80;;;;;;5071041;28;20412;-75
2023/04/26 09:04:46;;;;;;;8.43;3.20;;;12.70;13.60;;;;;;5070933;28;20502;-74
2023/04/26 09:07:19;;;;;;;8.60;2.85;;;12.80;12.70;;;;;;5072473;28;20475;-76
2023/04/26 09:09:47;;;;;;;11.88;3.75;;;12.90;12.30;;;;;;5072908;28;20387;-75
2023/04/26 09:12:13;;;;;;;8.70;3.50;;;12.80;12.60;;;;;;5071848;28;20741;-74
2023/04/26 09:14:39;;;;;;;8.40;3.53;;;12.60;12.60;;;;;;5088972;22;20744;-77
2023/04/26 09:17:05;;;;;;;5.32;2.60;;;12.10;13.30;;;;;;5076318;28;20898;-77
2023/04/26 09:19:41;;;;;;;6.80;2.50;;;12.10;12.60;;;;;;5076076;28;20391;-77
2023/04/26 09:22:08;;;;;;;10.65;2.90;;;12.00;12.70;;;;;;5056634;28;20458;-78
2023/04/26 09:24:47;;;;;;;10.07;2.83;;;12.00;13.00;;;;;;5071203;28;20395;-77
2023/04/26 09:27:15;;;;;;;8.77;2.95;;;12.00;12.20;;;;;;5071453;28;20380;-77
2023/04/26 09:29:55;;;;;;;5.30;2.60;;;12.00;13.20;;;;;;5053215;28;21002;-77
2023/04/26 09:32:21;;;;;;;11.37;3.60;;;11.50;13.80;;;;;;5070736;28;20414;-77
2023/04/26 09:34:46;;;;;;;12.80;3.20;;;11.10;15.10;;;;;;5073095;28;20456;-77
2023/04/26 09:37:12;;;;;;;8.10;2.30;;;11.30;14.80;;;;;;5076311;28;20470;-77
2023/04/26 09:39:40;;;;;;;8.38;2.80;;;11.50;13.00;;;;;;5055821;28;20392;-77
2023/04/26 09:42:06;;;;;;;7.75;2.47;;;11.70;12.90;;;;;;5070190;28;20404;-78
2023/04/26 09:44:33;;;;;;;6.07;2.33;;;11.90;12.80;;;;;;5052785;28;20530;-77
2023/04/26 09:47:07;;;;;;;8.80;2.92;;;11.60;12.50;;;;;;5071165;28;20467;-77
2023/04/26 09:49:47;;;;;;;8.30;3.30;;;11.90;12.80;;;;;;5052951;28;20470;-75
2023/04/26 09:52:14;;;;;;;12.30;2.90;;;12.20;12.50;;;;;;5052057;28;20391;-75
2023/04/26 09:54:45;;;;;;;5.95;2.75;;;12.30;11.80;;;;;;5070890;28;20392;-77
2023/04/26 09:57:15;;;;;;;12.57;2.83;;;12.20;11.20;;;;;;5070633;28;20379;-76
2023/04/26 09:59:42;;;;;;;6.60;3.10;;;11.70;12.10;;;;;;5070828;28;20390;-77
2023/04/26 10:02:15;;;;;;;10.80;3.38;;;12.10;12.60;;;;;;5069851;28;20898;-77
2023/04/26 10:04:44;;;;;;;7.35;2.90;;;12.40;12.00;;;;;;5070952;28;20380;-78
2023/04/26 10:07:11;;;;;;;7.55;3.38;;;12.90;11.10;;;;;;5071134;28;20386;-78
2023/04/26 10:09:37;;;;;;;11.63;3.50;;;13.40;9.70;;;;;;5070934;28;20840;-77
2023/04/26 10:12:03;;;;;;;10.50;3.20;;;13.80;9.50;;;;;;5070185;28;20387;-77
2023/04/26 10:14:29;;;;;;;10.00;3.20;;;13.80;9.10;;;;;;5070574;28;20403;-76
2023/04/26 10:16:57;;;;;;;8.27;3.38;;;13.30;9.20;;;;;;5070464;28;20397;-77
2023/04/26 10:19:22;;;;;;;9.30;3.28;;;12.50;10.40;;;;;;5052502;28;20392;-77
2023/04/26 10:21:52;;;;;;;11.60;3.60;;;12.30;11.20;;;;;;5070006;28;20400;-77
2023/04/26 10:24:18;;;;;;;9.80;3.38;;;12.40;11.00;;;;;;5070459;28;20379;-76
2023/04/26 10:26:51;;;;;;;8.13;3.40;;;12.50;11.50;;;;;;5053868;28;20411;-77
2023/04/26 10:29:18;;;;;;;13.70;3.50;;;12.80;11.20;;;;;;5072312;28;20867;-76
2023/04/26 10:32:05;;;;;;;15.93;3.45;;;12.70;11.90;;;;;;5071504;28;20398;-76
2023/04/26 10:34:32;;;;;;;10.13;3.47;;;12.40;12.10;;;;;;5055696;28;20753;-77
2023/04/26 10:37:16;;;;;;;17.13;4.55;;;12.50;11.90;;;;;;5073317;28;20406;-78
2023/04/26 10:39:43;;;;;;;12.15;3.60;;;12.50;13.60;;;;;;5056570;28;20456;-77
2023/04/26 10:42:23;;;;;;;9.52;3.35;;;12.70;12.60;;;;;;5075805;28;20403;-77
2023/04/26 10:44:56;;;;;;;10.07;3.50;;;12.30;11.90;;;;;;5078761;28;20479;-79
2023/04/26 10:47:29;;;;;;;8.85;4.18;;;12.30;12.80;;;;;;5077056;28;20380;-76
2023/04/26 10:50:06;;;;;;;10.27;3.70;;;12.30;13.10;;;;;;5076209;28;20376;-76
2023/04/26 10:52:32;;;;;;;8.40;3.67;;;12.20;12.30;;;;;;5075675;28;20391;-77
2023/04/26 10:54:58;;;;;;;6.13;3.30;;;12.20;11.40;;;;;;5074618;28;20379;-78
2023/04/26 10:57:48;;;;;;;10.38;3.22;;;12.20;11.40;;;;;;5075693;28;20379;-77
2023/04/26 11:00:19;;;;;;;9.20;3.10;;;12.50;11.80;;;;;;5057338;28;20388;-78
2023/04/26 11:02:52;;;;;;;6.50;3.20;;;12.60;11.10;;;;;;5074544;28;20773;-78
2023/04/26 11:05:52;;;;;;;11.82;3.60;;;12.80;10.20;;;;;;5076422;28;20372;-76
2023/04/26 11:08:20;;;;;;;7.63;2.78;;;13.00;9.60;;;;;;5075774;28;20372;-77
2023/04/26 11:11:04;;;;;;;6.82;3.00;;;13.20;8.50;;;;;;5076319;28;20380;-77
2023/04/26 11:13:40;;;;;;;7.95;2.53;;;13.10;7.80;;;;;;5075640;28;20382;-77
2023/04/26 11:16:11;;;;;;;8.90;3.15;;;13.20;7.80;;;;;;5075813;28;20892;-78
2023/04/26 11:18:39;;;;;;;11.07;3.33;;;13.10;8.00;;;;;;5076178;28;20384;-77
2023/04/26 11:21:06;;;;;;;8.25;3.10;;;13.20;7.80;;;;;;5075616;28;20384;-77
2023/04/26 11:23:31;;;;;;;7.22;3.20;;;13.40;6.70;;;;;;5075573;28;20410;-77
2023/04/26 11:26:04;;;;;;;7.50;3.20;;;13.10;7.90;;;;;;5075809;28;20470;-77
2023/04/26 11:28:30;;;;;;;12.35;3.13;;;12.80;7.90;;;;;;5075558;28;20411;-77
2023/04/26 11:30:56;;;;;;;7.68;3.50;;;12.80;8.70;;;;;;5074922;28;20425;-77
2023/04/26 11:33:22;;;;;;;9.87;3.70;;;13.00;9.50;;;;;;5057829;28;20403;-77
2023/04/26 11:35:49;;;;;;;11.82;4.20;;;12.90;9.70;;;;;;5075003;28;20391;-77
2023/04/26 11:38:15;;;;;;;10.90;3.40;;;12.60;10.10;;;;;;5074281;28;20868;-78
2023/04/26 11:40:41;;;;;;;8.77;4.20;;;12.60;10.90;;;;;;5073118;28;20394;-77
2023/04/26 11:43:08;;;;;;;12.32;3.90;;;12.50;11.20;;;;;;5072317;28;20472;-77
2023/04/26 11:45:36;;;;;;;8.63;3.70;;;12.50;11.50;;;;;;5073309;28;20450;-77
2023/04/26 11:48:04;;;;;;;10.88;3.53;;;12.60;10.80;;;;;;5055413;28;20411;-78
2023/04/26 11:50:35;;;;;;;8.68;3.00;;;12.70;10.70;;;;;;5073455;28;20376;-77
2023/04/26 11:53:03;;;;;;;8.57;3.20;;;13.00;10.20;;;;;;5075182;28;20383;-77
2023/04/26 11:55:33;;;;;;;8.15;3.30;;;13.20;9.50;;;;;;5074664;28;20402;-77
2023/04/26 11:58:00;;;;;;;7.10;3.50;;;13.30;9.50;;;;;;5074927;28;20416;-78
2023/04/26 12:00:26;;;;;;;9.10;3.20;;;12.90;9.60;;;;;;5057935;28;20408;-77
2023/04/26 12:02:52;;;;;;;10.50;3.75;;;13.10;9.40;;;;;;5077699;28;20416;-77
2023/04/26 12:05:24;;;;;;;10.60;3.47;;;13.20;8.40;;;;;;5077026;28;20387;-78
2023/04/26 12:07:52;;;;;;;5.75;3.20;;;13.20;9.00;;;;;;5060344;28;20379;-77
2023/04/26 12:10:19;;;;;;;9.18;3.20;;;13.50;9.00;;;;;;5073008;28;20422;-76
2023/04/26 12:12:52;;;;;;;8.88;3.10;;;14.00;7.90;;;;;;5071942;28;20850;-78
2023/04/26 12:15:21;;;;;;;7.50;3.40;;;14.10;7.40;;;;;;5072329;28;20406;-78
2023/04/26 12:18:13;;;;;;;7.43;3.15;;;14.40;6.70;;;;;;5072538;28;20387;-77
2023/04/26 12:20:41;;;;;;;8.27;3.10;;;14.50;5.80;;;;;;5072147;28;20400;-78
2023/04/26 12:23:13;;;;;;;10.93;3.47;;;15.00;5.40;;;;;;5071737;28;20599;-77
2023/04/26 12:25:40;;;;;;;7.93;3.10;;;15.50;4.60;;;;;;5072112;28;20437;-77
2023/04/26 12:28:12;;;;;;;6.40;3.30;;;15.30;4.30;;;;;;5073074;28;20459;-77
2023/04/26 12:30:38;;;;;;;6.20;3.20;;;14.70;4.90;;;;;;5072166;28;20380;-78
2023/04/26 12:33:05;;;;;;;10.23;3.13;;;14.50;4.90;;;;;;5071562;28;20375;-78
2023/04/26 12:35:31;;;;;;;7.83;3.17;;;14.80;4.60;;;;;;5072654;28;20387;-77
2023/04/26 12:37:59;;;;;;;6.53;3.30;;;14.90;3.70;;;;;;5072396;28;20449;-77
2023/04/26 12:40:26;;;;;;;9.27;3.10;;;15.40;4.40;;;;;;5072901;28;20949;-76
2023/04/26 12:42:52;;;;;;;5.03;3.10;;;15.50;3.70;;;;;;5071547;28;20517;-77